EmailTwitter


Surface observations / United Kingdom / EGTE (03839)

Regions: Quebec | Canada | USA | Europe | France | UK | Elsewhere
Station
Display
Info & Location for EGTE (03839) | Help decoding METAR

Weather Conditions observed on 2017/04/29 at 18:50 UTC at EXETER AIRPORT, UK (EGTE)

Sky conditions: few clouds.

Temperature: 11.0 Celsius.

Dewpoint: 7.0 Celsius.

Relative Humidity: 76%

Windchill Factor: 8.

Winds: Southeast at 31 km/h or 17 knots.

Mean Sea level Pressure: 100.70 kilopascals.

Horizontal visibility: 6.21 statute miles or 9.94 kilometers.

Coded METAR:

EGTE 291850Z 12017KT 9999 FEW045 11/07 Q1007=